createdAt,value
2023-02-18T00:00:46.768Z,10.54
2023-02-18T00:03:32.079Z,10.55
2023-02-18T00:06:29.624Z,10.54
2023-02-18T00:09:15.392Z,10.53
2023-02-18T00:12:01.016Z,10.53
2023-02-18T00:14:46.417Z,10.52
2023-02-18T00:17:31.798Z,10.49
2023-02-18T00:20:17.455Z,10.43
2023-02-18T00:23:04.187Z,10.38
2023-02-18T00:25:49.828Z,10.32
2023-02-18T00:28:35.826Z,10.31
2023-02-18T00:31:24.946Z,10.32
2023-02-18T00:34:12.864Z,10.37
2023-02-18T00:36:58.725Z,10.36
2023-02-18T00:39:44.464Z,10.30
2023-02-18T00:42:29.985Z,10.28
2023-02-18T00:45:15.751Z,10.26
2023-02-18T00:48:01.090Z,10.20
2023-02-18T00:50:47.184Z,10.14
2023-02-18T00:53:33.768Z,10.14
2023-02-18T00:56:19.298Z,10.08
2023-02-18T00:59:05.157Z,10.11
2023-02-18T01:01:50.849Z,10.14
2023-02-18T01:04:36.233Z,10.13
2023-02-18T01:07:21.382Z,10.11
2023-02-18T01:10:07.582Z,10.06
2023-02-18T01:12:53.308Z,10.01
2023-02-18T01:15:43.158Z,9.96
2023-02-18T01:18:29.207Z,9.91
2023-02-18T01:21:15.377Z,9.90
2023-02-18T01:24:00.854Z,9.89
2023-02-18T01:26:46.063Z,9.85
2023-02-18T01:29:33.102Z,9.88
2023-02-18T01:32:20.150Z,9.87
2023-02-18T01:35:08.386Z,9.86
2023-02-18T01:37:53.879Z,9.89
2023-02-18T01:40:47.640Z,9.87
2023-02-18T01:43:34.484Z,9.85
2023-02-18T01:46:22.466Z,9.87
2023-02-18T01:49:09.715Z,9.87
2023-02-18T01:52:04.028Z,9.92
2023-02-18T01:54:53.364Z,9.97
2023-02-18T01:57:39.116Z,10.03
2023-02-18T02:00:24.704Z,10.08
2023-02-18T02:03:11.506Z,10.16
2023-02-18T02:05:56.934Z,10.22
2023-02-18T02:08:42.649Z,10.23
2023-02-18T02:12:04.609Z,10.24
2023-02-18T02:14:55.927Z,10.25
2023-02-18T02:17:55.360Z,10.24
2023-02-18T02:21:15.538Z,10.20
2023-02-18T02:24:24.509Z,10.22
2023-02-18T02:27:25.180Z,10.22
2023-02-18T02:30:13.600Z,10.25
2023-02-18T02:33:07.858Z,10.25
2023-02-18T02:35:59.454Z,10.26
2023-02-18T02:39:07.143Z,10.28
2023-02-18T02:42:01.531Z,10.33
2023-02-18T02:44:56.386Z,10.36
2023-02-18T02:47:53.391Z,10.35
2023-02-18T02:50:53.042Z,10.34
2023-02-18T02:53:42.202Z,10.33
2023-02-18T02:56:27.724Z,10.33
2023-02-18T02:59:19.862Z,10.34
2023-02-18T03:02:37.532Z,10.33
2023-02-18T03:05:29.144Z,10.39
2023-02-18T03:08:33.267Z,10.40
2023-02-18T03:11:21.532Z,10.46
2023-02-18T03:14:30.552Z,10.49
2023-02-18T03:17:29.644Z,10.52
2023-02-18T03:20:36.188Z,10.54
2023-02-18T03:23:35.396Z,10.47
2023-02-18T03:26:21.730Z,10.42
2023-02-18T03:29:10.466Z,10.40
2023-02-18T03:32:01.376Z,10.33
2023-02-18T03:34:51.967Z,10.29
2023-02-18T03:37:42.622Z,10.29
2023-02-18T03:40:30.455Z,10.30
2023-02-18T03:43:16.741Z,10.25
2023-02-18T03:46:03.590Z,10.15
2023-02-18T03:48:48.868Z,10.10
2023-02-18T03:51:34.288Z,9.99
2023-02-18T03:54:20.434Z,9.97
2023-02-18T03:57:05.949Z,9.98
2023-02-18T03:59:51.314Z,9.98
2023-02-18T04:02:36.595Z,10.02
2023-02-18T04:05:22.041Z,10.06
2023-02-18T04:08:07.532Z,10.08
2023-02-18T04:10:52.939Z,10.12
2023-02-18T04:13:38.546Z,10.12
2023-02-18T04:16:23.928Z,10.04
2023-02-18T04:19:09.299Z,9.87
2023-02-18T04:21:54.803Z,9.66
2023-02-18T04:24:40.170Z,9.58
2023-02-18T04:27:25.687Z,9.51
2023-02-18T04:30:11.919Z,9.43
2023-02-18T04:32:57.589Z,9.38
2023-02-18T04:35:43.008Z,9.32
2023-02-18T04:38:28.333Z,9.25
2023-02-18T04:41:13.801Z,9.25
2023-02-18T04:43:59.741Z,9.23
2023-02-18T04:46:45.264Z,9.25
2023-02-18T04:49:30.554Z,9.25
2023-02-18T04:52:15.974Z,9.24
2023-02-18T04:55:01.599Z,9.30
2023-02-18T04:57:46.970Z,9.32
2023-02-18T05:00:32.641Z,9.38
2023-02-18T05:03:17.992Z,9.39
2023-02-18T05:06:03.537Z,9.38
2023-02-18T05:08:49.224Z,9.41
2023-02-18T05:11:34.487Z,9.46
2023-02-18T05:14:20.149Z,9.51
2023-02-18T05:17:05.761Z,9.57
2023-02-18T05:19:50.994Z,9.58
2023-02-18T05:22:36.693Z,9.55
2023-02-18T05:25:22.500Z,9.49
2023-02-18T05:28:09.059Z,9.48
2023-02-18T05:30:55.183Z,9.43
2023-02-18T05:33:40.600Z,9.34
2023-02-18T05:36:26.023Z,9.30
2023-02-18T05:39:11.481Z,9.29
2023-02-18T05:41:57.145Z,9.24
2023-02-18T05:44:42.587Z,9.23
2023-02-18T05:47:27.995Z,9.20
2023-02-18T05:50:13.939Z,9.17
2023-02-18T05:52:59.888Z,9.18
2023-02-18T05:55:45.518Z,9.14
2023-02-18T05:58:31.061Z,9.11
2023-02-18T06:01:16.349Z,9.10
2023-02-18T06:04:01.651Z,9.12
2023-02-18T06:06:47.327Z,9.10
2023-02-18T06:09:32.930Z,9.10
2023-02-18T06:12:18.249Z,9.13
2023-02-18T06:15:03.761Z,9.15
2023-02-18T06:17:49.377Z,9.19
2023-02-18T06:20:34.752Z,9.21
2023-02-18T06:23:20.144Z,9.20
2023-02-18T06:26:05.844Z,9.23
2023-02-18T06:28:51.446Z,9.23
2023-02-18T06:31:37.022Z,9.24
2023-02-18T06:34:22.701Z,9.27
2023-02-18T06:37:08.220Z,9.29
2023-02-18T06:39:53.971Z,9.29
2023-02-18T06:42:39.356Z,9.30
2023-02-18T06:45:24.988Z,9.29
2023-02-18T06:48:11.257Z,9.30
2023-02-18T06:50:57.021Z,9.30
2023-02-18T06:53:44.096Z,9.31
2023-02-18T06:56:31.031Z,9.30
2023-02-18T06:59:17.027Z,9.34
2023-02-18T07:02:02.574Z,9.37
2023-02-18T07:04:47.969Z,9.37
2023-02-18T07:07:33.388Z,9.38
2023-02-18T07:10:18.976Z,9.42
2023-02-18T07:13:05.044Z,9.44
2023-02-18T07:15:50.635Z,9.46
2023-02-18T07:18:36.047Z,9.48
2023-02-18T07:21:21.770Z,9.44
2023-02-18T07:24:07.178Z,9.34
2023-02-18T07:26:52.912Z,9.20
2023-02-18T07:29:38.196Z,9.10
2023-02-18T07:32:23.742Z,9.11
2023-02-18T07:35:13.386Z,9.18
2023-02-18T07:37:58.937Z,9.24
2023-02-18T07:40:45.435Z,9.34
2023-02-18T07:43:31.118Z,9.40
2023-02-18T07:46:17.070Z,9.43
2023-02-18T07:49:02.718Z,9.48
2023-02-18T07:51:49.183Z,9.50
2023-02-18T07:54:34.884Z,9.51
2023-02-18T07:57:20.505Z,9.49
2023-02-18T08:00:06.703Z,9.39
2023-02-18T08:02:57.634Z,9.29
2023-02-18T08:05:43.166Z,9.22
2023-02-18T08:08:31.458Z,9.14
2023-02-18T08:11:19.523Z,9.13
2023-02-18T08:14:06.217Z,9.13
2023-02-18T08:16:51.874Z,9.12
2023-02-18T08:19:37.539Z,9.12
2023-02-18T08:22:22.865Z,9.14
2023-02-18T08:25:09.165Z,9.17
2023-02-18T08:27:57.725Z,9.19
2023-02-18T08:30:48.337Z,9.20
2023-02-18T08:33:34.444Z,9.20
2023-02-18T08:36:20.414Z,9.23
2023-02-18T08:39:05.849Z,9.20
2023-02-18T08:41:51.361Z,9.17
2023-02-18T08:44:36.975Z,9.13
2023-02-18T08:48:17.523Z,9.11
2023-02-18T08:50:28.631Z,9.08
2023-02-18T08:53:14.068Z,9.05
2023-02-18T08:55:59.540Z,9.06
2023-02-18T08:58:45.002Z,9.05
2023-02-18T09:01:30.585Z,9.06
2023-02-18T09:04:16.803Z,9.06
2023-02-18T09:07:03.254Z,9.07
2023-02-18T09:09:48.457Z,9.06
2023-02-18T09:12:34.819Z,9.07
2023-02-18T09:15:20.230Z,9.06
2023-02-18T09:18:05.933Z,9.03
2023-02-18T09:20:51.631Z,9.01
2023-02-18T09:23:37.514Z,9.01
2023-02-18T09:26:23.574Z,9.00
2023-02-18T09:29:10.132Z,9.04
2023-02-18T09:31:55.832Z,9.10
2023-02-18T09:34:41.551Z,9.13
2023-02-18T09:37:26.727Z,9.18
2023-02-18T09:40:28.051Z,9.22
2023-02-18T09:43:50.732Z,9.29
2023-02-18T09:46:39.244Z,9.36
2023-02-18T09:49:59.106Z,9.43
2023-02-18T09:52:44.657Z,9.51
2023-02-18T09:55:38.980Z,9.58
2023-02-18T09:58:29.643Z,9.65
2023-02-18T10:01:21.201Z,9.75
2023-02-18T10:04:45.060Z,9.85
2023-02-18T10:07:33.324Z,9.93
2023-02-18T10:10:31.461Z,10.03
2023-02-18T10:13:28.361Z,10.13
2023-02-18T10:16:18.996Z,10.15
2023-02-18T10:19:22.194Z,10.16
2023-02-18T10:22:11.340Z,10.19
2023-02-18T10:25:01.094Z,10.23
2023-02-18T10:27:48.758Z,10.24
2023-02-18T10:30:41.412Z,10.29
2023-02-18T10:33:36.852Z,10.32
2023-02-18T10:36:27.286Z,10.36
2023-02-18T10:39:33.013Z,10.37
2023-02-18T10:42:25.114Z,10.38
2023-02-18T10:45:32.705Z,10.42
2023-02-18T10:48:23.992Z,10.39
2023-02-18T10:51:31.122Z,10.36
2023-02-18T10:54:16.737Z,10.33
2023-02-18T10:57:04.865Z,10.31
2023-02-18T11:00:01.225Z,10.33
2023-02-18T11:02:47.581Z,10.34
2023-02-18T11:05:36.726Z,10.42
2023-02-18T11:08:26.409Z,10.41
2023-02-18T11:11:21.310Z,10.38
2023-02-18T11:14:08.816Z,10.18
2023-02-18T11:16:56.552Z,10.06
2023-02-18T11:19:42.250Z,10.01
2023-02-18T11:22:39.852Z,9.93
2023-02-18T11:25:33.665Z,9.85
2023-02-18T11:28:19.065Z,9.85
2023-02-18T11:31:05.434Z,9.89
2023-02-18T11:33:54.825Z,9.89
2023-02-18T11:36:40.170Z,9.90
2023-02-18T11:39:28.404Z,9.97
2023-02-18T11:42:16.985Z,10.01
2023-02-18T11:45:05.142Z,10.07
2023-02-18T11:47:59.776Z,10.24
2023-02-18T11:50:46.184Z,10.33
2023-02-18T11:53:36.911Z,10.34
2023-02-18T11:56:22.545Z,10.34
2023-02-18T11:59:10.756Z,10.35
2023-02-18T12:02:11.326Z,10.32
2023-02-18T12:05:01.237Z,10.30
2023-02-18T12:07:58.914Z,10.26
2023-02-18T12:10:49.435Z,10.20
2023-02-18T12:14:04.345Z,10.18
2023-02-18T12:17:07.839Z,10.17
2023-02-18T12:20:02.138Z,10.24
2023-02-18T12:23:17.353Z,10.41
2023-02-18T12:26:09.070Z,10.58
2023-02-18T12:29:06.449Z,10.72
2023-02-18T12:32:23.393Z,10.81
2023-02-18T12:35:32.249Z,10.91
2023-02-18T12:38:20.722Z,10.99
2023-02-18T12:41:52.890Z,11.08
2023-02-18T12:45:02.636Z,11.03
2023-02-18T12:48:09.502Z,10.83
2023-02-18T12:51:15.311Z,10.63
2023-02-18T12:54:22.845Z,10.54
2023-02-18T12:57:29.920Z,10.67
2023-02-18T13:00:40.270Z,10.83
2023-02-18T13:03:41.628Z,10.97
2023-02-18T13:06:57.979Z,11.19
2023-02-18T13:10:02.162Z,11.25
2023-02-18T13:13:11.492Z,11.22
2023-02-18T13:16:04.386Z,11.19
2023-02-18T13:19:19.868Z,11.08
2023-02-18T13:22:09.118Z,10.94
2023-02-18T13:24:57.966Z,11.00
2023-02-18T13:27:51.170Z,11.12
2023-02-18T13:30:48.969Z,11.20
2023-02-18T13:33:58.889Z,11.29
2023-02-18T13:37:01.392Z,11.29
2023-02-18T13:40:10.058Z,11.29
2023-02-18T13:43:27.515Z,11.22
2023-02-18T13:46:19.212Z,11.24
2023-02-18T13:49:13.089Z,11.32
2023-02-18T13:52:00.053Z,11.36
2023-02-18T13:54:49.504Z,11.61
2023-02-18T13:57:39.104Z,11.80
2023-02-18T14:00:40.582Z,11.91
2023-02-18T14:03:51.024Z,11.86
2023-02-18T14:06:39.005Z,11.72
2023-02-18T14:09:24.490Z,11.51
2023-02-18T14:12:30.968Z,11.36
2023-02-18T14:15:19.294Z,11.28
2023-02-18T14:18:07.749Z,11.15
2023-02-18T14:21:05.190Z,11.16
2023-02-18T14:23:59.805Z,11.07
2023-02-18T14:26:49.686Z,11.12
2023-02-18T14:29:35.073Z,11.15
2023-02-18T14:32:21.719Z,11.09
2023-02-18T14:35:37.981Z,11.17
2023-02-18T14:38:23.775Z,11.17
2023-02-18T14:41:33.923Z,11.11
2023-02-18T14:44:54.794Z,10.98
2023-02-18T14:48:14.144Z,10.92
2023-02-18T14:51:01.270Z,11.04
2023-02-18T14:53:47.979Z,11.03
2023-02-18T14:56:39.745Z,10.98
2023-02-18T14:59:34.370Z,10.87
2023-02-18T15:02:24.922Z,10.96
2023-02-18T15:05:21.917Z,11.07
2023-02-18T15:08:16.050Z,11.04
2023-02-18T15:11:06.089Z,11.05
2023-02-18T15:13:51.973Z,10.94
2023-02-18T15:16:37.574Z,10.92
2023-02-18T15:19:26.229Z,10.98
2023-02-18T15:22:19.446Z,11.04
2023-02-18T15:25:05.061Z,11.05
2023-02-18T15:27:52.321Z,11.03
2023-02-18T15:30:39.254Z,10.89
2023-02-18T15:33:25.461Z,10.74
2023-02-18T15:36:14.772Z,10.69
2023-02-18T15:39:00.721Z,10.73
2023-02-18T15:41:48.243Z,10.85
2023-02-18T15:44:36.294Z,10.86
2023-02-18T15:47:22.965Z,10.75
2023-02-18T15:50:18.844Z,10.69
2023-02-18T15:53:16.817Z,10.68
2023-02-18T15:56:07.073Z,10.70
2023-02-18T15:59:07.563Z,10.74
2023-02-18T16:02:20.337Z,10.69
2023-02-18T16:05:13.860Z,10.66
2023-02-18T16:08:05.422Z,10.62
2023-02-18T16:10:58.208Z,10.59
2023-02-18T16:13:48.262Z,10.52
2023-02-18T16:16:36.089Z,10.45
2023-02-18T16:19:25.564Z,10.39
2023-02-18T16:22:43.043Z,10.33
2023-02-18T16:25:54.716Z,10.32
2023-02-18T16:28:42.855Z,10.30
2023-02-18T16:31:28.494Z,10.21
2023-02-18T16:34:13.728Z,10.17
2023-02-18T16:37:17.745Z,10.09
2023-02-18T16:40:05.613Z,10.06
2023-02-18T16:42:52.067Z,10.05
2023-02-18T16:45:48.411Z,10.01
2023-02-18T16:48:43.702Z,9.96
2023-02-18T16:51:34.814Z,9.92
2023-02-18T16:54:20.377Z,9.82
2023-02-18T16:57:05.995Z,9.79
2023-02-18T16:59:51.475Z,9.78
2023-02-18T17:02:37.095Z,9.78
2023-02-18T17:05:27.097Z,9.76
2023-02-18T17:08:15.451Z,9.76
2023-02-18T17:11:00.849Z,9.79
2023-02-18T17:13:46.823Z,9.83
2023-02-18T17:16:32.245Z,9.85
2023-02-18T17:19:17.722Z,9.83
2023-02-18T17:22:03.141Z,9.80
2023-02-18T17:24:48.460Z,9.72
2023-02-18T17:27:34.025Z,9.70
2023-02-18T17:30:19.945Z,9.64
2023-02-18T17:33:06.879Z,9.61
2023-02-18T17:35:52.262Z,9.60
2023-02-18T17:38:38.317Z,9.59
2023-02-18T17:41:23.809Z,9.52
2023-02-18T17:44:20.677Z,9.49
2023-02-18T17:47:06.421Z,9.50
2023-02-18T17:49:52.041Z,9.51
2023-02-18T17:52:37.344Z,9.50
2023-02-18T17:55:29.200Z,9.50
2023-02-18T17:58:16.106Z,9.50
2023-02-18T18:01:01.726Z,9.47
2023-02-18T18:03:47.125Z,9.46
2023-02-18T18:06:36.177Z,9.47
2023-02-18T18:09:21.428Z,9.44
2023-02-18T18:12:07.138Z,9.39
2023-02-18T18:14:52.591Z,9.39
2023-02-18T18:17:37.920Z,9.36
2023-02-18T18:20:25.719Z,9.35
2023-02-18T18:23:13.394Z,9.34
2023-02-18T18:25:59.855Z,9.32
2023-02-18T18:28:45.633Z,9.31
2023-02-18T18:31:32.282Z,9.31
2023-02-18T18:34:17.818Z,9.28
2023-02-18T18:37:03.531Z,9.23
2023-02-18T18:39:48.836Z,9.17
2023-02-18T18:42:34.411Z,9.11
2023-02-18T18:45:32.208Z,9.09
2023-02-18T18:48:18.489Z,9.08
2023-02-18T18:51:04.813Z,9.09
2023-02-18T18:53:50.537Z,9.11
2023-02-18T18:56:37.945Z,9.11
2023-02-18T18:59:23.568Z,9.16
2023-02-18T19:02:17.230Z,9.18
2023-02-18T19:05:04.364Z,9.18
2023-02-18T19:07:50.215Z,9.18
2023-02-18T19:10:44.100Z,9.18
2023-02-18T19:13:32.033Z,9.17
2023-02-18T19:16:38.740Z,9.15
2023-02-18T19:19:24.759Z,9.14
2023-02-18T19:22:10.269Z,9.12
2023-02-18T19:24:55.636Z,9.13
2023-02-18T19:27:43.413Z,9.15
2023-02-18T19:30:32.927Z,9.15
2023-02-18T19:33:18.528Z,9.16
2023-02-18T19:36:09.492Z,9.17
2023-02-18T19:38:54.663Z,9.16
2023-02-18T19:41:40.153Z,9.14
2023-02-18T19:44:25.506Z,9.12
2023-02-18T19:47:10.886Z,9.07
2023-02-18T19:49:58.885Z,9.04
2023-02-18T19:52:44.430Z,9.01
2023-02-18T19:55:29.869Z,9.00
2023-02-18T19:58:15.187Z,8.98
2023-02-18T20:01:00.717Z,8.96
2023-02-18T20:03:47.410Z,8.95
2023-02-18T20:06:32.846Z,8.94
2023-02-18T20:09:18.216Z,8.92
2023-02-18T20:12:04.831Z,8.92
2023-02-18T20:14:51.310Z,8.90
2023-02-18T20:17:38.320Z,8.91
2023-02-18T20:20:23.857Z,8.92
2023-02-18T20:23:09.118Z,8.91
2023-02-18T20:25:54.501Z,8.88
2023-02-18T20:28:39.736Z,8.88
2023-02-18T20:31:25.226Z,8.86
2023-02-18T20:34:11.928Z,8.85
2023-02-18T20:36:57.406Z,8.83
2023-02-18T20:39:42.846Z,8.81
2023-02-18T20:42:28.092Z,8.79
2023-02-18T20:45:13.534Z,8.79
2023-02-18T20:47:59.024Z,8.80
2023-02-18T20:50:44.412Z,8.77
2023-02-18T20:53:31.581Z,8.78
2023-02-18T20:56:20.120Z,8.77
2023-02-18T20:59:05.454Z,8.76
2023-02-18T21:01:51.118Z,8.75
2023-02-18T21:04:36.322Z,8.74
2023-02-18T21:07:22.451Z,8.73
2023-02-18T21:10:08.294Z,8.69
2023-02-18T21:12:53.480Z,8.70
2023-02-18T21:15:38.733Z,8.73
2023-02-18T21:18:24.836Z,8.74
2023-02-18T21:21:11.736Z,8.75
2023-02-18T21:23:57.475Z,8.73
2023-02-18T21:26:43.045Z,8.69
2023-02-18T21:29:28.556Z,8.72
2023-02-18T21:32:14.238Z,8.73
2023-02-18T21:35:00.383Z,8.72
2023-02-18T21:37:46.060Z,8.71
2023-02-18T21:40:32.234Z,8.74
2023-02-18T21:43:17.861Z,8.73
2023-02-18T21:46:13.841Z,8.72
2023-02-18T21:49:02.525Z,8.71
2023-02-18T21:51:58.179Z,8.67
2023-02-18T21:54:47.270Z,8.65
2023-02-18T21:57:32.870Z,8.64
2023-02-18T22:00:21.154Z,8.65
2023-02-18T22:03:06.864Z,8.63
2023-02-18T22:05:52.259Z,8.64
2023-02-18T22:08:37.609Z,8.66
2023-02-18T22:11:22.979Z,8.64
2023-02-18T22:14:08.920Z,8.62
2023-02-18T22:16:54.706Z,8.65
2023-02-18T22:19:40.512Z,8.64
2023-02-18T22:22:26.016Z,8.64
2023-02-18T22:25:11.656Z,8.63
2023-02-18T22:27:56.889Z,8.60
2023-02-18T22:30:42.188Z,8.61
2023-02-18T22:33:27.711Z,8.59
2023-02-18T22:36:13.708Z,8.58
2023-02-18T22:39:02.936Z,8.59
2023-02-18T22:41:48.594Z,8.54
2023-02-18T22:44:33.977Z,8.51
2023-02-18T22:47:19.396Z,8.48
2023-02-18T22:50:04.948Z,8.47
2023-02-18T22:52:50.494Z,8.42
2023-02-18T22:55:35.760Z,8.44
2023-02-18T22:58:21.142Z,8.44
2023-02-18T23:01:07.567Z,8.42
2023-02-18T23:03:53.699Z,8.37
2023-02-18T23:06:40.963Z,8.37
2023-02-18T23:09:26.619Z,8.34
2023-02-18T23:12:11.801Z,8.30
2023-02-18T23:14:57.297Z,8.29
2023-02-18T23:17:42.620Z,8.25
2023-02-18T23:20:46.291Z,8.17
2023-02-18T23:23:37.197Z,8.17
2023-02-18T23:26:25.109Z,8.17
2023-02-18T23:29:11.383Z,8.20
2023-02-18T23:31:57.006Z,8.20
2023-02-18T23:34:42.388Z,8.24
2023-02-18T23:37:46.196Z,8.27
2023-02-18T23:40:33.111Z,8.28
2023-02-18T23:43:18.684Z,8.26
2023-02-18T23:46:04.125Z,8.24
2023-02-18T23:48:49.485Z,8.18
2023-02-18T23:51:34.765Z,8.08
2023-02-18T23:54:20.948Z,8.06
2023-02-18T23:57:06.602Z,8.07
2023-02-18T23:59:51.858Z,8.08
